Charlestown, Rhode Island
Current Conditions -  °F | °C
As of 5:53 AM on Friday 28 Nov 2014 (Local Time) from KWST Reporting Station
Overcast Overcast  
Wind Chill: 23°   Ceiling: 6000
Heat Index: 31°   Visibility: 10mi
Dew Point: 26°   Wind: 9mph
Humidity: 82%   Direction: 330°NNW
Pressure: 30.02"   Gusts: NA
Location:  41.38°N, 71.64°W
Report Text: KWST 281053Z AUTO 33008KT 10SM OVC060 M01/M03 A3002 RMK AO2 SLP167 T10061033
Loading
Personal Weather Stations






























Interactive Weather Map New forecast layout! Learn more

10-Day Weather Forecast

Advertisements
Track Severe Weather on mobile